createdAt,value
2022-09-15T00:00:18.265Z,15.87
2022-09-15T00:03:01.719Z,15.94
2022-09-15T00:05:46.538Z,15.86
2022-09-15T00:08:29.639Z,15.91
2022-09-15T00:11:17.365Z,15.88
2022-09-15T00:14:03.244Z,15.89
2022-09-15T00:16:46.419Z,15.82
2022-09-15T00:19:29.483Z,15.91
2022-09-15T00:22:14.294Z,15.83
2022-09-15T00:24:57.405Z,15.87
2022-09-15T00:27:40.422Z,15.88
2022-09-15T00:30:24.754Z,15.92
2022-09-15T00:33:08.139Z,15.83
2022-09-15T00:35:53.450Z,15.94
2022-09-15T00:38:40.664Z,15.89
2022-09-15T00:41:25.056Z,15.92
2022-09-15T00:44:23.643Z,15.96
2022-09-15T00:47:19.356Z,15.79
2022-09-15T00:50:07.502Z,15.74
2022-09-15T00:52:56.970Z,15.62
2022-09-15T00:55:45.551Z,15.72
2022-09-15T00:58:34.266Z,15.72
2022-09-15T01:01:19.069Z,15.78
2022-09-15T01:04:02.795Z,15.73
2022-09-15T01:06:51.851Z,15.71
2022-09-15T01:09:39.662Z,15.59
2022-09-15T01:12:25.350Z,15.66
2022-09-15T01:15:09.570Z,15.61
2022-09-15T01:18:11.764Z,15.66
2022-09-15T01:21:04.842Z,15.66
2022-09-15T01:24:27.162Z,15.62
2022-09-15T01:27:42.086Z,15.61
2022-09-15T01:30:27.812Z,15.53
2022-09-15T01:33:22.537Z,15.52
2022-09-15T01:36:10.592Z,15.52
2022-09-15T01:39:01.156Z,15.48
2022-09-15T01:41:48.682Z,15.41
2022-09-15T01:44:36.596Z,15.39
2022-09-15T01:47:22.304Z,15.35
2022-09-15T01:50:11.680Z,15.43
2022-09-15T01:52:58.775Z,15.34
2022-09-15T01:55:45.197Z,15.26
2022-09-15T01:58:28.390Z,15.27
2022-09-15T02:01:17.310Z,15.23
2022-09-15T02:04:07.999Z,15.32
2022-09-15T02:06:56.837Z,15.23
2022-09-15T02:09:46.627Z,15.22
2022-09-15T02:12:36.918Z,15.19
2022-09-15T02:15:27.413Z,15.15
2022-09-15T02:18:14.815Z,15.15
2022-09-15T02:21:10.209Z,15.17
2022-09-15T02:23:58.590Z,15.13
2022-09-15T02:26:44.361Z,15.16
2022-09-15T02:29:29.374Z,15.20
2022-09-15T02:32:15.286Z,15.17
2022-09-15T02:35:00.546Z,15.16
2022-09-15T02:37:45.614Z,15.21
2022-09-15T02:40:30.086Z,15.26
2022-09-15T02:43:15.440Z,15.24
2022-09-15T02:45:58.645Z,15.22
2022-09-15T02:48:41.706Z,15.20
2022-09-15T02:51:24.932Z,15.17
2022-09-15T02:54:12.071Z,15.14
2022-09-15T02:56:55.129Z,15.13
2022-09-15T02:59:51.973Z,15.06
2022-09-15T03:02:35.192Z,15.06
2022-09-15T03:05:20.052Z,14.86
2022-09-15T03:08:03.584Z,14.98
2022-09-15T03:10:47.998Z,14.95
2022-09-15T03:13:31.198Z,14.99
2022-09-15T03:16:18.298Z,15.01
2022-09-15T03:19:02.138Z,14.89
2022-09-15T03:21:45.154Z,14.96
2022-09-15T03:24:28.366Z,14.98
2022-09-15T03:27:12.786Z,14.90
2022-09-15T03:29:55.868Z,14.84
2022-09-15T03:32:39.495Z,14.90
2022-09-15T03:35:22.646Z,14.90
2022-09-15T03:38:05.802Z,14.73
2022-09-15T03:40:58.496Z,14.82
2022-09-15T03:43:43.067Z,14.80
2022-09-15T03:46:26.167Z,14.81
2022-09-15T03:49:09.394Z,14.82
2022-09-15T03:51:52.455Z,14.77
2022-09-15T03:54:35.597Z,14.80
2022-09-15T03:57:18.682Z,14.77
2022-09-15T04:00:03.508Z,14.78
2022-09-15T04:02:46.686Z,14.75
2022-09-15T04:05:30.122Z,14.79
2022-09-15T04:08:14.347Z,14.74
2022-09-15T04:10:57.360Z,14.79
2022-09-15T04:13:41.978Z,14.82
2022-09-15T04:16:27.829Z,14.85
2022-09-15T04:19:11.442Z,14.88
2022-09-15T04:21:54.541Z,14.82
2022-09-15T04:24:37.978Z,14.85
2022-09-15T04:27:21.117Z,14.84
2022-09-15T04:30:06.668Z,14.85
2022-09-15T04:32:51.829Z,15.04
2022-09-15T04:35:34.890Z,15.02
2022-09-15T04:38:18.349Z,15.22
2022-09-15T04:41:01.925Z,15.27
2022-09-15T04:43:45.438Z,15.36
2022-09-15T04:46:28.833Z,15.48
2022-09-15T04:49:13.372Z,15.64
2022-09-15T04:51:56.510Z,15.64
2022-09-15T04:54:39.854Z,15.80
2022-09-15T04:57:22.930Z,15.97
2022-09-15T05:00:07.620Z,16.02
2022-09-15T05:02:50.709Z,16.14
2022-09-15T05:05:36.399Z,16.27
2022-09-15T05:08:19.841Z,16.32
2022-09-15T05:11:04.117Z,16.45
2022-09-15T05:13:47.567Z,16.52
2022-09-15T05:16:32.046Z,16.71
2022-09-15T05:19:15.607Z,16.95
2022-09-15T05:22:02.175Z,17.10
2022-09-15T05:24:46.180Z,17.21
2022-09-15T05:27:32.769Z,17.42
2022-09-15T05:30:36.729Z,17.55
2022-09-15T05:33:19.445Z,17.74
2022-09-15T05:36:02.856Z,17.88
2022-09-15T05:38:47.385Z,18.08
2022-09-15T05:41:31.006Z,18.36
2022-09-15T05:44:14.044Z,18.72
2022-09-15T05:46:57.369Z,18.92
2022-09-15T05:49:40.529Z,19.11
2022-09-15T05:52:23.822Z,19.31
2022-09-15T05:55:10.128Z,19.67
2022-09-15T05:57:53.794Z,20.06
2022-09-15T06:00:37.370Z,20.56
2022-09-15T06:03:21.751Z,22.01
2022-09-15T06:06:07.324Z,24.52
2022-09-15T06:08:58.049Z,26.87
2022-09-15T06:11:43.205Z,28.92
2022-09-15T06:14:26.263Z,30.44
2022-09-15T06:17:09.374Z,30.69
2022-09-15T06:19:52.836Z,30.99
2022-09-15T06:22:35.962Z,30.59
2022-09-15T06:25:19.048Z,32.53
2022-09-15T06:28:03.793Z,34.14
2022-09-15T06:30:49.576Z,34.42
2022-09-15T06:33:32.770Z,33.79
2022-09-15T06:36:16.976Z,33.38
2022-09-15T06:39:00.268Z,32.73
2022-09-15T06:42:01.283Z,33.51
2022-09-15T06:44:47.022Z,34.80
2022-09-15T06:47:34.050Z,36.11
2022-09-15T06:50:17.476Z,35.66
2022-09-15T06:53:00.559Z,33.23
2022-09-15T06:55:43.650Z,36.45
2022-09-15T06:58:26.902Z,33.87
2022-09-15T07:01:13.066Z,34.85
2022-09-15T07:03:57.487Z,37.88
2022-09-15T07:06:41.193Z,39.12
2022-09-15T07:09:24.295Z,40.41
2022-09-15T07:12:07.766Z,37.64
2022-09-15T07:14:50.838Z,37.48
2022-09-15T07:17:37.508Z,39.01
2022-09-15T07:20:20.578Z,40.04
2022-09-15T07:23:03.646Z,41.73
2022-09-15T07:25:46.960Z,43.04
2022-09-15T07:28:30.056Z,42.09
2022-09-15T07:31:15.127Z,39.99
2022-09-15T07:34:01.043Z,41.57
2022-09-15T07:36:44.108Z,42.03
2022-09-15T07:39:27.240Z,42.21
2022-09-15T07:42:10.700Z,45.42
2022-09-15T07:44:53.736Z,44.16
2022-09-15T07:47:36.774Z,44.24
2022-09-15T07:50:21.189Z,44.29
2022-09-15T07:53:04.364Z,42.23
2022-09-15T07:55:47.826Z,41.05
2022-09-15T07:58:30.908Z,41.53
2022-09-15T08:01:16.914Z,43.73
2022-09-15T08:04:00.196Z,46.54
2022-09-15T08:06:44.764Z,47.66
2022-09-15T08:09:27.958Z,47.26
2022-09-15T08:12:10.982Z,46.63
2022-09-15T08:14:54.180Z,45.93
2022-09-15T08:17:37.378Z,47.73
2022-09-15T08:20:21.479Z,46.14
2022-09-15T08:23:06.013Z,43.58
2022-09-15T08:25:51.493Z,44.20
2022-09-15T08:28:36.908Z,43.91
2022-09-15T08:31:20.014Z,47.08
2022-09-15T08:34:06.954Z,44.71
2022-09-15T08:36:52.342Z,47.43
2022-09-15T08:39:37.000Z,49.53
2022-09-15T08:42:24.372Z,49.92
2022-09-15T08:45:19.540Z,51.09
2022-09-15T08:48:08.056Z,52.07
2022-09-15T08:50:55.906Z,51.24
2022-09-15T08:53:46.448Z,52.45
2022-09-15T08:56:33.242Z,51.85
2022-09-15T08:59:18.210Z,50.26
2022-09-15T09:02:43.275Z,52.24
2022-09-15T09:05:45.670Z,52.65
2022-09-15T09:09:13.443Z,53.69
2022-09-15T09:12:16.479Z,51.41
2022-09-15T09:15:15.384Z,52.37
2022-09-15T09:18:15.690Z,53.16
2022-09-15T09:21:06.221Z,52.67
2022-09-15T09:23:56.782Z,51.94
2022-09-15T09:26:40.338Z,52.85
2022-09-15T09:29:34.030Z,51.22
2022-09-15T09:32:22.164Z,51.29
2022-09-15T09:35:14.622Z,50.45
2022-09-15T09:37:57.932Z,51.34
2022-09-15T09:40:41.279Z,51.14
2022-09-15T09:43:24.809Z,51.98
2022-09-15T09:46:16.354Z,50.29
2022-09-15T09:49:05.243Z,52.83
2022-09-15T09:51:53.194Z,52.94
2022-09-15T09:54:37.266Z,55.67
2022-09-15T09:57:29.885Z,54.56
2022-09-15T10:00:33.724Z,56.36
2022-09-15T10:03:19.907Z,55.18
2022-09-15T10:06:06.348Z,54.42
2022-09-15T10:08:58.156Z,51.97
2022-09-15T10:11:46.480Z,52.61
2022-09-15T10:14:34.739Z,54.61
2022-09-15T10:17:22.406Z,54.93
2022-09-15T10:20:22.976Z,52.09
2022-09-15T10:23:23.677Z,54.50
2022-09-15T10:26:36.266Z,54.32
2022-09-15T10:29:20.369Z,54.27
2022-09-15T10:32:21.695Z,54.81
2022-09-15T10:35:13.250Z,56.53
2022-09-15T10:38:05.178Z,53.27
2022-09-15T10:40:56.917Z,52.01
2022-09-15T10:43:48.299Z,52.45
2022-09-15T10:46:46.678Z,53.45
2022-09-15T10:49:49.931Z,53.20
2022-09-15T10:52:49.058Z,50.63
2022-09-15T10:55:52.668Z,45.52
2022-09-15T10:58:51.133Z,46.90
2022-09-15T11:02:12.214Z,42.79
2022-09-15T11:05:20.573Z,43.78
2022-09-15T11:08:32.284Z,43.51
2022-09-15T11:11:22.808Z,42.06
2022-09-15T11:14:19.682Z,40.11
2022-09-15T11:17:14.336Z,39.22
2022-09-15T11:20:13.561Z,38.49
2022-09-15T11:23:02.020Z,36.75
2022-09-15T11:25:52.243Z,36.12
2022-09-15T11:28:41.053Z,36.41
2022-09-15T11:31:28.340Z,35.64
2022-09-15T11:34:21.457Z,35.41
2022-09-15T11:37:11.170Z,35.43
2022-09-15T11:40:09.269Z,35.58
2022-09-15T11:43:00.886Z,35.86
2022-09-15T11:45:50.590Z,36.13
2022-09-15T11:48:41.795Z,35.95
2022-09-15T11:51:28.109Z,35.81
2022-09-15T11:54:18.976Z,36.07
2022-09-15T11:57:02.232Z,36.32
2022-09-15T11:59:54.768Z,36.10
2022-09-15T12:02:45.161Z,35.69
2022-09-15T12:05:33.167Z,35.55
2022-09-15T12:08:20.568Z,34.95
2022-09-15T12:11:09.630Z,34.96
2022-09-15T12:13:53.791Z,34.81
2022-09-15T12:16:38.739Z,34.84
2022-09-15T12:19:42.078Z,34.69
2022-09-15T12:22:29.664Z,34.84
2022-09-15T12:25:18.089Z,34.73
2022-09-15T12:28:38.816Z,34.74
2022-09-15T12:31:39.473Z,34.48
2022-09-15T12:34:37.626Z,34.07
2022-09-15T12:37:26.767Z,33.97
2022-09-15T12:40:42.187Z,33.98
2022-09-15T12:43:25.766Z,33.76
2022-09-15T12:46:19.428Z,33.52
2022-09-15T12:49:04.812Z,33.38
2022-09-15T12:51:50.901Z,33.02
2022-09-15T12:54:35.962Z,32.95
2022-09-15T12:57:24.586Z,32.86
2022-09-15T13:01:06.794Z,32.60
2022-09-15T13:04:25.682Z,32.40
2022-09-15T13:07:37.438Z,32.27
2022-09-15T13:10:47.805Z,32.02
2022-09-15T13:13:38.554Z,31.91
2022-09-15T13:16:30.518Z,31.94
2022-09-15T13:19:20.904Z,31.90
2022-09-15T13:22:14.072Z,31.86
2022-09-15T13:25:02.590Z,31.72
2022-09-15T13:27:48.356Z,31.63
2022-09-15T13:30:42.358Z,31.53
2022-09-15T13:40:58.651Z,31.23
2022-09-15T13:44:15.128Z,31.13
2022-09-15T13:47:14.617Z,31.12
2022-09-15T13:50:10.282Z,31.16
2022-09-15T13:53:29.399Z,31.10
2022-09-15T13:56:20.799Z,31.10
2022-09-15T13:59:11.512Z,30.94
2022-09-15T14:01:59.128Z,30.78
2022-09-15T14:04:43.404Z,30.72
2022-09-15T14:07:27.274Z,30.67
2022-09-15T14:10:27.544Z,30.70
2022-09-15T14:13:17.684Z,30.64
2022-09-15T14:16:03.397Z,30.58
2022-09-15T14:18:47.957Z,30.51
2022-09-15T14:21:36.605Z,30.48
2022-09-15T14:24:26.801Z,30.50
2022-09-15T14:27:11.794Z,30.49
2022-09-15T14:29:57.997Z,30.41
2022-09-15T14:32:47.001Z,30.43
2022-09-15T14:35:36.649Z,30.42
2022-09-15T14:38:24.393Z,30.45
2022-09-15T14:41:07.743Z,30.50
2022-09-15T14:43:50.847Z,30.49
2022-09-15T14:46:39.756Z,30.58
2022-09-15T14:49:24.703Z,30.65
2022-09-15T14:52:24.521Z,30.55
2022-09-15T14:55:13.581Z,30.41
2022-09-15T14:58:00.445Z,30.25
2022-09-15T15:00:54.499Z,30.21
2022-09-15T15:03:46.305Z,30.06
2022-09-15T15:06:35.531Z,29.89
2022-09-15T15:09:25.451Z,29.82
2022-09-15T15:12:18.104Z,29.77
2022-09-15T15:15:01.409Z,29.73
2022-09-15T15:17:49.364Z,29.65
2022-09-15T15:20:34.004Z,29.55
2022-09-15T15:23:23.409Z,29.49
2022-09-15T15:26:34.515Z,29.43
2022-09-15T15:29:39.377Z,29.42
2022-09-15T15:32:25.144Z,29.36
2022-09-15T15:35:18.359Z,29.36
2022-09-15T15:38:06.387Z,29.23
2022-09-15T15:40:49.559Z,29.05
2022-09-15T15:43:34.369Z,29.02
2022-09-15T15:46:49.298Z,28.98
2022-09-15T15:49:33.643Z,28.98
2022-09-15T15:52:16.829Z,29.00
2022-09-15T15:55:00.033Z,29.06
2022-09-15T15:57:43.951Z,28.97
2022-09-15T16:00:33.154Z,28.88
2022-09-15T16:03:19.765Z,28.78
2022-09-15T16:06:04.629Z,28.64
2022-09-15T16:08:48.791Z,28.50
2022-09-15T16:11:32.199Z,28.26
2022-09-15T16:14:15.430Z,28.05
2022-09-15T16:16:58.667Z,27.87
2022-09-15T16:19:43.731Z,27.68
2022-09-15T16:22:28.081Z,27.46
2022-09-15T16:25:17.489Z,27.26
2022-09-15T16:28:01.517Z,27.11
2022-09-15T16:30:45.209Z,26.93
2022-09-15T16:33:28.342Z,26.85
2022-09-15T16:36:14.253Z,26.70
2022-09-15T16:38:57.486Z,26.68
2022-09-15T16:41:40.636Z,26.62
2022-09-15T16:44:23.715Z,26.46
2022-09-15T16:47:07.317Z,26.38
2022-09-15T16:49:51.424Z,26.37
2022-09-15T16:52:35.884Z,26.48
2022-09-15T16:55:24.885Z,26.48
2022-09-15T16:58:08.763Z,26.38
2022-09-15T17:00:53.737Z,26.30
2022-09-15T17:03:36.922Z,26.27
2022-09-15T17:06:21.121Z,26.14
2022-09-15T17:09:06.170Z,26.11
2022-09-15T17:11:51.309Z,26.01
2022-09-15T17:14:34.849Z,25.97
2022-09-15T17:17:25.042Z,25.82
2022-09-15T17:20:08.988Z,25.75
2022-09-15T17:22:53.055Z,25.73
2022-09-15T17:25:48.981Z,25.67
2022-09-15T17:28:34.175Z,25.57
2022-09-15T17:31:21.867Z,25.40
2022-09-15T17:34:05.268Z,25.22
2022-09-15T17:36:48.788Z,25.08
2022-09-15T17:39:34.103Z,25.02
2022-09-15T17:42:18.642Z,24.84
2022-09-15T17:45:04.199Z,24.75
2022-09-15T17:47:47.721Z,24.59
2022-09-15T17:50:35.075Z,24.53
2022-09-15T17:53:21.304Z,24.45
2022-09-15T17:56:04.849Z,24.37
2022-09-15T17:58:51.487Z,24.23
2022-09-15T18:01:34.891Z,24.19
2022-09-15T18:04:18.038Z,24.19
2022-09-15T18:07:01.403Z,24.13
2022-09-15T18:09:44.722Z,24.09
2022-09-15T18:12:27.846Z,24.27
2022-09-15T18:15:16.576Z,24.33
2022-09-15T18:18:02.921Z,24.15
2022-09-15T18:20:46.127Z,24.11
2022-09-15T18:23:33.522Z,24.05
2022-09-15T18:26:19.065Z,23.96
2022-09-15T18:29:05.556Z,23.98
2022-09-15T18:32:02.918Z,24.11
2022-09-15T18:34:46.208Z,24.19
2022-09-15T18:37:29.392Z,24.26
2022-09-15T18:40:17.774Z,24.22
2022-09-15T18:43:02.614Z,24.23
2022-09-15T18:45:46.892Z,24.10
2022-09-15T18:48:36.895Z,24.12
2022-09-15T18:51:34.856Z,24.03
2022-09-15T18:54:35.391Z,23.88
2022-09-15T18:57:19.923Z,23.87
2022-09-15T19:00:06.202Z,23.87
2022-09-15T19:02:49.839Z,23.87
2022-09-15T19:05:34.842Z,23.78
2022-09-15T19:08:18.396Z,23.77
2022-09-15T19:11:02.395Z,23.73
2022-09-15T19:13:45.518Z,23.70
2022-09-15T19:16:56.497Z,23.55
2022-09-15T19:19:40.330Z,23.41
2022-09-15T19:22:24.865Z,23.20
2022-09-15T19:25:12.210Z,23.28
2022-09-15T19:27:57.980Z,23.23
2022-09-15T19:30:41.296Z,23.17
2022-09-15T19:33:28.248Z,23.22
2022-09-15T19:36:27.453Z,23.18
2022-09-15T19:39:15.251Z,23.25
2022-09-15T19:41:58.896Z,23.22
2022-09-15T19:44:43.666Z,23.13
2022-09-15T19:47:30.575Z,23.09
2022-09-15T19:50:16.658Z,22.97
2022-09-15T19:53:00.821Z,22.93
2022-09-15T19:55:52.668Z,22.96
2022-09-15T19:58:37.088Z,23.10
2022-09-15T20:01:21.377Z,23.15
2022-09-15T20:04:06.091Z,23.13
2022-09-15T20:06:50.105Z,23.12
2022-09-15T20:09:34.742Z,23.28
2022-09-15T20:12:32.143Z,23.24
2022-09-15T20:15:16.004Z,23.24
2022-09-15T20:18:00.108Z,23.33
2022-09-15T20:20:43.243Z,23.27
2022-09-15T20:23:26.258Z,23.35
2022-09-15T20:26:12.202Z,23.38
2022-09-15T20:28:56.796Z,23.42
2022-09-15T20:31:39.891Z,23.35
2022-09-15T20:34:24.051Z,23.20
2022-09-15T20:37:08.258Z,23.16
2022-09-15T20:39:53.153Z,23.14
2022-09-15T20:42:40.914Z,23.18
2022-09-15T20:45:25.437Z,23.08
2022-09-15T20:48:09.096Z,23.58
2022-09-15T20:50:52.090Z,23.85
2022-09-15T20:53:37.199Z,23.88
2022-09-15T20:56:24.935Z,24.10
2022-09-15T20:59:10.923Z,24.08
2022-09-15T21:01:55.815Z,24.01
2022-09-15T21:04:39.643Z,23.56
2022-09-15T21:07:23.830Z,23.22
2022-09-15T21:10:09.107Z,22.69
2022-09-15T21:12:52.153Z,22.43
2022-09-15T21:15:35.751Z,22.41
2022-09-15T21:18:20.407Z,22.24
2022-09-15T21:21:06.179Z,22.16
2022-09-15T21:23:51.566Z,22.00
2022-09-15T21:27:00.493Z,22.01
2022-09-15T21:29:44.286Z,21.93
2022-09-15T21:32:27.315Z,21.85
2022-09-15T21:35:12.021Z,21.85
2022-09-15T21:38:00.018Z,21.81
2022-09-15T21:40:48.820Z,21.78
2022-09-15T21:43:35.260Z,21.68
2022-09-15T21:46:21.140Z,21.76
2022-09-15T21:49:05.504Z,21.71
2022-09-15T21:51:53.920Z,21.71
2022-09-15T21:54:37.052Z,21.66
2022-09-15T21:57:21.793Z,21.60
2022-09-15T22:00:06.642Z,21.47
2022-09-15T22:02:54.262Z,21.47
2022-09-15T22:05:37.295Z,21.51
2022-09-15T22:08:22.314Z,21.54
2022-09-15T22:11:05.628Z,21.53
2022-09-15T22:13:48.748Z,21.68
2022-09-15T22:16:32.509Z,21.67
2022-09-15T22:19:15.644Z,21.67
2022-09-15T22:21:58.696Z,21.86
2022-09-15T22:24:43.161Z,21.78
2022-09-15T22:27:27.514Z,21.74
2022-09-15T22:30:11.734Z,21.89
2022-09-15T22:32:54.943Z,21.88
2022-09-15T22:35:37.925Z,21.80
2022-09-15T22:38:22.162Z,21.63
2022-09-15T22:41:09.510Z,21.57
2022-09-15T22:43:52.931Z,21.61
2022-09-15T22:46:39.040Z,21.71
2022-09-15T22:49:22.136Z,21.68
2022-09-15T22:52:05.392Z,21.59
2022-09-15T22:54:48.439Z,21.79
2022-09-15T22:57:32.876Z,21.88
2022-09-15T23:00:16.624Z,21.71
2022-09-15T23:02:59.848Z,21.68
2022-09-15T23:05:42.937Z,21.66
2022-09-15T23:08:26.202Z,21.62
2022-09-15T23:11:11.573Z,21.75
2022-09-15T23:13:56.852Z,21.53
2022-09-15T23:16:40.198Z,21.46
2022-09-15T23:19:23.288Z,21.44
2022-09-15T23:22:06.430Z,21.48
2022-09-15T23:24:49.589Z,21.35
2022-09-15T23:27:32.770Z,21.34
2022-09-15T23:30:17.671Z,21.24
2022-09-15T23:33:00.727Z,21.16
2022-09-15T23:35:43.764Z,21.18
2022-09-15T23:38:26.917Z,21.19
2022-09-15T23:41:10.868Z,21.16
2022-09-15T23:43:53.983Z,21.02
2022-09-15T23:46:38.482Z,20.93
2022-09-15T23:49:21.625Z,20.90
2022-09-15T23:52:05.182Z,20.82
2022-09-15T23:54:48.237Z,20.85
2022-09-15T23:57:31.428Z,20.74
